D/T METAR WX W/DIR W/SPE G/SPE TEMP DEWP
8/12/19 16:20 EGNV 081620Z 22021KT 9999 VCSH FEW020 SCT040 06/03 Q0986 VCSH SW (220°) 24.2mph 6°C 3°C
8/12/19 15:50 EGNV 081550Z 23020G30KT 9999 SHRA SCT020 07/02 Q0986 SHRA SW (230°) 23.0mph 34.5mph 7°C 2°C
8/12/19 15:20 EGNV 081520Z 22018G30KT 9999 FEW020 06/02 Q0986 SW (220°) 20.7mph 34.5mph 6°C 2°C
8/12/19 14:50 EGNV 081450Z 22021G32KT 9999 -SHRA FEW020 SCT032CB 07/02 Q0986 -SHRA SW (220°) 24.2mph 36.8mph 7°C 2°C
8/12/19 14:20 EGNV 081420Z 24022KT 9999 -SHRA FEW020 SCT040 07/03 Q0986 -SHRA WSW (240°) 25.3mph 7°C 3°C
8/12/19 13:50 EGNV 081350Z 23023G34KT 9999 FEW020 07/02 Q0986 SW (230°) 26.5mph 39.1mph 7°C 2°C
8/12/19 13:20 EGNV 081320Z 23021KT 9999 FEW020 07/03 Q0987 SW (230°) 24.2mph 7°C 3°C
8/12/19 12:50 EGNV 081250Z 24023KT 9999 VCSH FEW020 07/03 Q0987 VCSH WSW (240°) 26.5mph 7°C 3°C
8/12/19 12:20 EGNV 081220Z 24027G38KT 9999 FEW020 07/03 Q0988 WSW (240°) 31.1mph 43.7mph 7°C 3°C
8/12/19 11:50 EGNV 081150Z 24021G33KT 9999 VCSH FEW025 07/03 Q0988 VCSH WSW (240°) 24.2mph 38.0mph 7°C 3°C
8/12/19 11:20 EGNV 081120Z 24024G35KT 9999 VCSH FEW022 07/03 Q0988 VCSH WSW (240°) 27.6mph 40.3mph 7°C 3°C
8/12/19 10:50 EGNV 081050Z 23019G29KT 9999 VCSH FEW025 07/03 Q0989 VCSH SW (230°) 21.9mph 33.4mph 7°C 3°C
8/12/19 10:20 EGNV 081020Z 23022KT 9999 VCSH FEW030 07/02 Q0989 VCSH SW (230°) 25.3mph 7°C 2°C
8/12/19 09:50 EGNV 080950Z 24017KT 9999 FEW030 07/02 Q0989 WSW (240°) 19.6mph 7°C 2°C
8/12/19 09:20 EGNV 080920Z 24020KT 9999 FEW030 07/03 Q0989 WSW (240°) 23.0mph 7°C 3°C
8/12/19 08:50 EGNV 080850Z 24019KT 9999 SCT025 07/03 Q0989 WSW (240°) 21.9mph 7°C 3°C
8/12/19 08:20 EGNV 080820Z 25017KT 9999 VCSH FEW045CB 07/03 Q0989 VCSH WSW (250°) 19.6mph 7°C 3°C
8/12/19 07:50 EGNV 080750Z 24018KT 9999 FEW040CB 07/02 Q0989 WSW (240°) 20.7mph 7°C 2°C
8/12/19 07:20 EGNV 080720Z 25016G27KT CAVOK 07/03 Q0989 WSW (250°) 18.4mph 31.1mph 7°C 3°C
8/12/19 06:50 EGNV 080650Z 25017KT CAVOK 08/03 Q0989 WSW (250°) 19.6mph 8°C 3°C
8/12/19 05:50 EGNV 080550Z 25013KT 230V290 CAVOK 08/04 Q0989 WSW (250°) 15.0mph 8°C 4°C
7/12/19 21:50 EGNV 072150Z 18024KT 9999 FEW018 SCT021 10/07 Q0994 S (180°) 27.6mph 10°C 7°C
7/12/19 21:20 EGNV 072120Z 20014KT 170V230 9999 BKN021 10/07 Q0996 SSW (200°) 16.1mph 10°C 7°C
7/12/19 20:50 EGNV 072050Z 20018KT 9999 SCT019 10/07 Q0998 SSW (200°) 20.7mph 10°C 7°C
7/12/19 20:20 EGNV 072020Z 20018KT 9999 SCT019 10/07 Q0998 SSW (200°) 20.7mph 10°C 7°C
7/12/19 19:50 EGNV 071950Z 20018KT 9999 SCT018 09/07 Q0999 SSW (200°) 20.7mph 9°C 7°C
7/12/19 18:50 EGNV 071850Z 21012KT 9999 SCT021 10/07 Q1001 SSW (210°) 13.8mph 10°C 7°C
7/12/19 17:20 EGNV 071720Z 20010KT 170V230 9999 FEW013 SCT016 09/07 Q1003 SSW (200°) 11.5mph 9°C 7°C
7/12/19 16:50 EGNV 071650Z 21010KT 9999 VCSH FEW012 SCT020 09/06 Q1004 VCSH SSW (210°) 11.5mph 9°C 6°C
7/12/19 16:20 EGNV 071620Z 21013KT 9999 FEW012 SCT025 09/06 Q1004 SSW (210°) 15.0mph 9°C 6°C
7/12/19 15:50 EGNV 071550Z 22012KT 9999 FEW012 SCT022 09/06 Q1005 SW (220°) 13.8mph 9°C 6°C
7/12/19 15:20 EGNV 071520Z 20013KT 9999 FEW013 BKN021 09/06 Q1005 SSW (200°) 15.0mph 9°C 6°C
7/12/19 14:50 EGNV 071450Z 22014KT 9999 FEW018 BKN019 09/06 Q1005 SW (220°) 16.1mph 9°C 6°C
7/12/19 14:20 EGNV 071420Z 22015KT 9999 FEW018 SCT023 09/06 Q1005 SW (220°) 17.3mph 9°C 6°C
7/12/19 13:50 EGNV 071350Z 21012KT 9999 FEW018 SCT025 09/06 Q1006 SSW (210°) 13.8mph 9°C 6°C
7/12/19 13:20 EGNV 071320Z 22016KT 9999 FEW018 SCT024 09/06 Q1006 SW (220°) 18.4mph 9°C 6°C
7/12/19 12:50 EGNV 071250Z 22012KT 9999 FEW018 BKN023 09/06 Q1007 SW (220°) 13.8mph 9°C 6°C
7/12/19 12:20 EGNV 071220Z 22014KT 9999 FEW020 SCT024 09/06 Q1007 SW (220°) 16.1mph 9°C 6°C
7/12/19 11:50 EGNV 071150Z 22012KT 9999 FEW020 BKN028 09/06 Q1007 SW (220°) 13.8mph 9°C 6°C
7/12/19 11:20 EGNV 071120Z 22011KT 9999 FEW020 SCT030 09/06 Q1007 SW (220°) 12.7mph 9°C 6°C
7/12/19 10:50 EGNV 071050Z 22012KT 9999 FEW022 SCT030 09/06 Q1008 SW (220°) 13.8mph 9°C 6°C
7/12/19 10:20 EGNV 071020Z 22009KT 9999 FEW028 SCT035 09/05 Q1008 SW (220°) 10.4mph 9°C 5°C
7/12/19 09:50 EGNV 070950Z 22009KT 9999 FEW025 SCT035 07/05 Q1008 SW (220°) 10.4mph 7°C 5°C
7/12/19 09:20 EGNV 070920Z 20009KT 9999 FEW026 SCT034 07/05 Q1008 SSW (200°) 10.4mph 7°C 5°C
7/12/19 08:50 EGNV 070850Z 23007KT 9999 FEW026 06/04 Q1007 SW (230°) 8.1mph 6°C 4°C
7/12/19 08:20 EGNV 070820Z 22008KT 9999 FEW030 07/05 Q1007 SW (220°) 9.2mph 7°C 5°C
7/12/19 07:20 EGNV 070720Z 23008KT 200V260 9999 FEW024 07/05 Q1007 SW (230°) 9.2mph 7°C 5°C
7/12/19 06:50 EGNV 070650Z 26010KT 9999 FEW024 07/05 Q1007 W (260°) 11.5mph 7°C 5°C